Time;durP1;ratioP1;P1;durP2;ratioP2;P2;SDS_P1;SDS_P2;PMS_P1;PMS_P2;Temp;Humidity;BMP_temperature;BMP_pressure;BME280_temperature;BME280_humidity;BME280_pressure;Samples;Min_cycle;Max_cycle;Signal;HPM_P1;HPM_P2
2024/02/26 00:01:20;;;;;;;8.88;7.97;;;8.60;99.90;;;8.71;89.54;99744.22;4954814;28;20109;-68
2024/02/26 00:03:49;;;;;;;8.10;7.32;;;8.60;99.90;;;8.69;90.10;99746.88;4954810;28;20055;-68
2024/02/26 00:06:18;;;;;;;8.35;7.57;;;8.60;99.90;;;8.79;89.92;99743.19;4972009;28;20046;-70
2024/02/26 00:08:46;;;;;;;8.38;7.57;;;8.70;99.90;;;8.78;89.88;99740.59;4972443;28;20436;-69
2024/02/26 00:11:15;;;;;;;10.60;7.63;;;8.60;99.90;;;8.75;89.90;99746.78;4972015;28;20057;-68
2024/02/26 00:13:45;;;;;;;8.23;7.50;;;8.60;99.90;;;8.76;89.96;99739.75;4971785;28;20058;-69
2024/02/26 00:16:13;;;;;;;10.17;8.83;;;8.60;99.90;;;8.69;89.99;99746.88;4972028;28;20066;-70
2024/02/26 00:18:41;;;;;;;10.80;7.97;;;8.60;99.90;;;8.63;90.16;99727.66;4971700;28;20093;-69
2024/02/26 00:21:10;;;;;;;10.95;7.78;;;8.60;99.90;;;8.70;89.57;99739.84;4971672;28;20039;-67
2024/02/26 00:23:38;;;;;;;13.85;8.65;;;8.60;99.90;;;8.70;89.89;99745.09;4971693;28;20241;-68
2024/02/26 00:26:07;;;;;;;8.73;7.60;;;8.60;99.90;;;8.70;90.13;99743.34;4970663;28;20047;-68
2024/02/26 00:28:36;;;;;;;7.78;7.07;;;8.60;99.90;;;8.73;89.73;99747.72;4971938;28;20082;-69
2024/02/26 00:31:05;;;;;;;8.77;7.90;;;8.60;99.90;;;8.68;89.57;99747.78;4971998;28;20058;-68
2024/02/26 00:33:33;;;;;;;8.68;7.88;;;8.60;99.90;;;8.06;89.66;99658.19;4954613;28;20141;-68
2024/02/26 00:36:02;;;;;;;9.55;7.75;;;8.50;99.90;;;8.60;90.17;99746.13;4971659;28;20042;-69
2024/02/26 00:38:30;;;;;;;8.48;7.68;;;8.50;99.90;;;8.53;89.44;99720.78;4971581;28;20039;-69
2024/02/26 00:40:58;;;;;;;8.07;7.28;;;8.50;99.90;;;8.66;89.59;99748.69;4971551;28;20054;-69
2024/02/26 00:43:27;;;;;;;11.85;7.80;;;8.50;99.90;;;8.68;89.30;99754.81;4971546;28;20047;-68
2024/02/26 00:45:55;;;;;;;8.25;7.43;;;8.60;99.90;;;8.69;88.53;99746.00;4971582;28;20054;-68
2024/02/26 00:48:26;;;;;;;7.72;7.03;;;8.60;99.90;;;8.63;89.00;99719.75;4972746;28;20042;-69
2024/02/26 00:50:55;;;;;;;8.45;7.65;;;8.50;99.90;;;8.76;88.63;99756.44;4975488;28;20050;-68
2024/02/26 00:53:24;;;;;;;8.02;6.97;;;8.60;99.90;;;8.78;87.99;99751.13;4975675;28;20050;-69
2024/02/26 00:55:53;;;;;;;8.90;7.32;;;8.60;99.90;;;8.78;87.42;99751.13;4975029;28;20046;-69
2024/02/26 00:58:21;;;;;;;7.95;7.10;;;8.70;99.90;;;8.61;88.02;99727.69;4975116;28;20073;-69
2024/02/26 01:00:50;;;;;;;7.82;6.75;;;8.60;99.90;;;8.73;87.52;99742.44;4975547;28;20105;-69
2024/02/26 01:03:19;;;;;;;7.45;6.72;;;8.60;99.90;;;8.62;87.52;99726.78;4975180;28;20360;-69
2024/02/26 01:05:49;;;;;;;9.05;7.53;;;8.70;99.90;;;8.78;87.30;99764.31;4974852;28;20568;-69
2024/02/26 01:08:17;;;;;;;7.88;7.18;;;8.70;99.90;;;8.71;87.24;99757.41;4974875;28;20051;-68
2024/02/26 01:10:46;;;;;;;9.43;7.45;;;8.60;99.90;;;8.74;87.60;99746.81;4974842;28;20408;-69
2024/02/26 01:13:14;;;;;;;8.65;7.15;;;8.60;99.90;;;8.79;87.29;99748.47;4957739;28;20050;-68
2024/02/26 01:15:43;;;;;;;8.82;7.85;;;8.70;99.90;;;8.81;86.96;99754.59;4975251;28;20050;-69
2024/02/26 01:18:13;;;;;;;8.80;7.90;;;8.70;99.90;;;8.82;87.21;99759.00;4974745;28;20050;-68
2024/02/26 01:20:42;;;;;;;8.43;7.15;;;8.70;99.90;;;8.76;87.15;99758.19;4974637;28;20404;-69
2024/02/26 01:23:13;;;;;;;8.80;7.97;;;8.60;99.90;;;8.69;87.50;99752.13;4974562;28;20053;-68
2024/02/26 01:25:43;;;;;;;10.20;8.23;;;8.60;99.90;;;8.76;87.39;99742.38;4974860;28;20051;-69
2024/02/26 01:28:11;;;;;;;8.00;7.20;;;8.60;99.90;;;8.17;87.37;99651.00;4974381;28;20042;-68
2024/02/26 01:30:39;;;;;;;8.88;7.70;;;8.60;99.90;;;8.74;87.58;99745.03;4974673;28;20145;-69
2024/02/26 01:33:08;;;;;;;8.43;7.63;;;8.60;99.90;;;8.73;87.08;99745.94;4974423;28;20038;-69
2024/02/26 01:35:37;;;;;;;9.18;7.43;;;8.60;99.90;;;8.76;87.41;99748.53;4973367;28;20441;-68
2024/02/26 01:38:05;;;;;;;7.72;7.13;;;8.60;99.90;;;8.65;87.66;99749.59;4974415;28;20054;-69
2024/02/26 01:40:36;;;;;;;8.98;8.07;;;8.60;99.90;;;8.82;87.67;99752.84;4974333;28;20412;-69
2024/02/26 01:43:04;;;;;;;;;;;8.70;99.90;;;8.77;87.44;99752.00;4974752;28;20050;-69
2024/02/26 01:45:33;;;;;;;12.60;7.82;;;8.70;99.90;;;8.80;87.20;99763.41;4974301;28;19922;-69
2024/02/26 01:48:02;;;;;;;8.85;7.88;;;8.70;99.90;;;8.88;87.66;99763.28;4974004;28;20377;-69
2024/02/26 01:50:31;;;;;;;9.85;8.63;;;8.70;99.90;;;8.85;87.38;99773.88;4974142;28;20338;-69
2024/02/26 01:53:00;;;;;;;9.40;8.45;;;8.70;99.90;;;8.71;87.10;99763.53;4974110;28;20061;-69
2024/02/26 01:55:28;;;;;;;9.63;8.25;;;8.70;99.90;;;8.63;87.49;99773.31;4974039;28;20073;-68
2024/02/26 01:57:58;;;;;;;8.45;7.65;;;8.60;99.90;;;8.63;87.45;99778.56;4974041;28;20089;-69
2024/02/26 02:00:27;;;;;;;8.80;8.00;;;8.60;99.90;;;8.63;88.07;99788.28;4973081;28;20385;-69
2024/02/26 02:02:56;;;;;;;11.88;8.10;;;8.50;99.90;;;8.65;87.74;99795.25;4973903;28;20116;-70
2024/02/26 02:05:25;;;;;;;10.95;8.18;;;8.50;99.90;;;8.67;87.66;99797.88;4973846;28;20047;-68
2024/02/26 02:07:55;;;;;;;9.32;8.27;;;8.50;99.90;;;8.56;88.39;99798.00;4974326;28;20046;-68
2024/02/26 02:10:25;;;;;;;11.00;8.73;;;8.50;99.90;;;8.49;88.55;99783.19;4956674;28;20050;-69
2024/02/26 02:12:54;;;;;;;9.73;8.82;;;8.40;99.90;;;8.62;88.28;99786.50;4973686;28;20050;-68
2024/02/26 02:15:24;;;;;;;12.85;8.82;;;8.50;99.90;;;8.70;87.76;99792.56;4956598;28;20142;-69
2024/02/26 02:17:52;;;;;;;12.07;8.85;;;8.50;99.90;;;8.76;87.54;99789.84;4973857;28;20082;-68
2024/02/26 02:20:27;;;;;;;11.45;9.35;;;8.60;99.90;;;8.75;87.66;99796.84;4973872;28;20051;-68
2024/02/26 02:22:55;;;;;;;10.93;9.73;;;8.60;99.90;;;8.78;87.30;99799.47;4973538;28;20042;-69
2024/02/26 02:25:24;;;;;;;10.10;9.20;;;8.70;99.90;;;8.72;86.97;99793.41;4973429;28;20075;-70
2024/02/26 02:27:54;;;;;;;10.60;9.48;;;8.60;99.90;;;8.74;86.88;99802.16;4973320;28;20047;-68
2024/02/26 02:30:26;;;;;;;10.50;9.45;;;8.60;99.90;;;8.68;87.12;99794.34;4973649;28;20047;-69
2024/02/26 02:32:55;;;;;;;10.77;9.75;;;8.60;99.90;;;8.67;87.20;99805.78;4973434;28;20081;-70
2024/02/26 02:35:23;;;;;;;11.02;9.90;;;8.60;99.90;;;8.65;87.09;99808.41;4973286;28;20074;-69
2024/02/26 02:37:54;;;;;;;12.73;10.02;;;8.60;99.90;;;8.79;86.94;99834.59;4973690;28;20098;-69
2024/02/26 02:40:22;;;;;;;;;;;8.60;99.90;;;8.81;86.90;99806.44;4973501;28;20052;-68
2024/02/26 02:42:50;;;;;;;11.25;10.05;;;8.70;99.90;;;8.81;86.76;99820.50;4973199;28;19988;-70
2024/02/26 02:45:19;;;;;;;11.77;10.27;;;8.70;99.90;;;8.83;86.72;99823.09;4973073;28;20055;-69
2024/02/26 02:47:47;;;;;;;12.20;10.75;;;8.70;99.90;;;8.21;86.20;99705.38;4972914;28;20042;-68
2024/02/26 02:50:16;;;;;;;13.02;10.57;;;8.70;99.90;;;8.73;86.65;99824.16;4973246;28;20094;-69
2024/02/26 02:52:44;;;;;;;12.98;10.75;;;8.60;99.90;;;8.66;86.51;99825.13;4973392;28;20058;-70
2024/02/26 02:55:14;;;;;;;12.27;10.75;;;8.60;99.90;;;8.73;85.98;99822.38;4972985;28;20073;-70
2024/02/26 02:57:44;;;;;;;11.27;10.07;;;8.60;99.90;;;8.77;86.10;99818.81;4973046;28;20605;-70
2024/02/26 03:00:14;;;;;;;11.95;10.68;;;8.60;99.90;;;8.70;86.03;99827.69;4973073;28;20085;-70
2024/02/26 03:02:42;;;;;;;11.70;10.53;;;8.60;99.90;;;8.71;85.74;99831.22;4972732;28;20038;-71
2024/02/26 03:05:10;;;;;;;14.05;11.35;;;8.60;99.90;;;7.94;88.14;99851.41;4973067;28;20047;-70
2024/02/26 03:07:38;;;;;;;14.07;10.77;;;8.00;99.90;;;8.26;88.87;99842.31;4972891;28;20116;-70
2024/02/26 03:10:08;;;;;;;14.00;11.10;;;8.10;99.90;;;8.46;88.51;99843.81;4972870;28;20047;-69
2024/02/26 03:12:38;;;;;;;12.70;11.40;;;8.30;99.90;;;8.52;87.60;99848.13;4972547;28;20508;-70
2024/02/26 03:15:07;;;;;;;13.02;10.40;;;8.30;99.90;;;8.61;87.62;99846.28;4973155;28;20055;-70
2024/02/26 03:17:36;;;;;;;12.13;10.77;;;8.40;99.90;;;8.63;87.17;99846.25;4973130;28;20035;-71
2024/02/26 03:20:09;;;;;;;13.10;11.50;;;8.50;99.90;;;8.69;87.05;99849.66;4973065;28;20301;-71
2024/02/26 03:22:40;;;;;;;13.27;11.05;;;8.50;99.90;;;8.61;86.34;99840.13;4973035;28;20046;-71
2024/02/26 03:25:09;;;;;;;;;;;8.60;99.90;;;8.51;86.23;99820.94;4972883;28;20043;-71
2024/02/26 03:27:38;;;;;;;13.60;11.35;;;8.60;99.90;;;8.56;86.10;99860.38;4972636;28;20018;-71
2024/02/26 03:30:08;;;;;;;11.50;10.37;;;8.50;99.90;;;7.77;86.14;99755.09;4972700;28;20046;-70
2024/02/26 03:32:37;;;;;;;12.27;10.52;;;8.40;99.90;;;8.25;86.78;99865.16;4972379;28;20293;-70
2024/02/26 03:35:07;;;;;;;11.88;10.02;;;8.20;99.90;;;8.22;87.89;99865.16;4972265;28;20041;-70
2024/02/26 03:37:35;;;;;;;14.98;11.55;;;8.10;99.90;;;8.15;88.20;99853.81;4972512;28;20456;-70
2024/02/26 03:40:05;;;;;;;12.70;11.45;;;8.10;99.90;;;8.16;88.41;99850.31;4972705;28;20089;-70
2024/02/26 03:42:33;;;;;;;13.90;10.95;;;8.10;99.90;;;8.23;88.97;99866.03;4972469;28;20117;-71
2024/02/26 03:45:03;;;;;;;12.63;11.32;;;8.10;99.90;;;8.23;88.22;99861.63;4972173;28;20455;-70
2024/02/26 03:47:31;;;;;;;13.02;10.85;;;8.10;99.90;;;8.25;88.57;99875.69;4972384;28;20070;-70
2024/02/26 03:50:00;;;;;;;14.50;11.00;;;8.20;99.90;;;8.32;88.27;99863.34;4971907;28;20086;-70
2024/02/26 03:52:27;;;;;;;12.98;11.15;;;8.20;99.90;;;8.39;88.29;99857.09;4972202;28;20145;-70
2024/02/26 03:54:56;;;;;;;13.63;11.15;;;8.30;99.90;;;8.31;87.96;99845.75;4972519;28;20039;-70
2024/02/26 03:57:24;;;;;;;12.57;11.07;;;8.20;99.90;;;8.32;88.11;99860.69;4972298;28;20043;-70
2024/02/26 03:59:53;;;;;;;15.60;10.82;;;8.20;99.90;;;8.30;88.12;99870.38;4972108;28;20047;-70
2024/02/26 04:02:23;;;;;;;12.18;10.80;;;8.20;99.90;;;8.40;88.17;99869.38;4972017;28;20049;-70
2024/02/26 04:04:52;;;;;;;12.70;11.20;;;8.20;99.90;;;8.39;87.67;99880.81;4972238;28;20046;-69
2024/02/26 04:07:21;;;;;;;12.90;11.25;;;8.30;99.90;;;8.55;87.46;99885.88;4971884;28;20070;-71
2024/02/26 04:09:49;;;;;;;13.80;11.43;;;8.40;99.90;;;8.52;86.80;99882.38;4971724;28;20064;-71
2024/02/26 04:12:18;;;;;;;12.73;11.43;;;8.40;99.90;;;8.52;87.15;99879.75;4955064;28;20047;-70
2024/02/26 04:14:47;;;;;;;13.27;11.40;;;8.40;99.90;;;8.54;86.97;99888.50;4972089;28;20062;-70
2024/02/26 04:17:15;;;;;;;14.93;11.93;;;8.40;99.90;;;8.57;86.89;99877.97;4954727;28;20047;-71
2024/02/26 04:19:45;;;;;;;15.70;12.60;;;8.50;99.90;;;8.53;86.72;99886.78;4972280;28;20177;-69
2024/02/26 04:22:13;;;;;;;16.60;12.85;;;8.40;99.90;;;8.43;86.82;99888.66;4954648;28;20051;-70
2024/02/26 04:24:42;;;;;;;15.73;13.05;;;8.40;99.90;;;8.52;86.92;99895.56;4975552;28;20051;-70
2024/02/26 04:27:10;;;;;;;16.17;13.60;;;8.40;99.90;;;8.49;86.59;99887.72;4975971;28;20385;-70
2024/02/26 04:29:39;;;;;;;15.27;12.63;;;8.40;99.90;;;8.33;86.93;99888.78;4975486;28;20150;-70
2024/02/26 04:32:07;;;;;;;15.73;13.70;;;8.30;99.90;;;8.34;86.94;99898.44;4975546;28;20047;-70
2024/02/26 04:34:36;;;;;;;15.23;13.45;;;8.30;99.90;;;8.30;87.18;99894.09;4976080;28;20058;-70
2024/02/26 04:37:06;;;;;;;15.13;12.98;;;8.20;99.90;;;8.34;87.49;99890.53;4975482;28;20042;-70
2024/02/26 04:39:35;;;;;;;15.30;13.23;;;8.20;99.90;;;8.35;87.05;99902.78;4975372;28;20039;-69
2024/02/26 04:42:04;;;;;;;17.10;13.45;;;8.30;99.90;;;8.41;86.96;99897.47;4975400;28;20051;-70
2024/02/26 04:44:32;;;;;;;17.23;13.65;;;8.30;99.90;;;8.42;86.65;99907.13;4975850;28;20046;-70
2024/02/26 04:47:01;;;;;;;17.35;14.07;;;8.30;99.90;;;8.39;87.42;99904.50;4975300;28;20054;-70
2024/02/26 04:49:30;;;;;;;17.95;13.77;;;8.30;99.90;;;8.40;86.92;99909.75;4975607;28;20051;-68
2024/02/26 04:51:57;;;;;;;17.83;13.63;;;8.30;99.90;;;8.41;86.80;99908.88;4974972;28;20425;-68
2024/02/26 04:54:27;;;;;;;15.75;14.00;;;8.30;99.90;;;8.49;87.39;99908.78;4958022;28;20059;-67
2024/02/26 04:56:55;;;;;;;16.85;14.05;;;8.30;99.90;;;8.40;87.20;99920.28;4975347;28;20109;-68
2024/02/26 04:59:24;;;;;;;17.50;13.77;;;8.30;99.90;;;8.31;87.03;99916.88;4975007;28;20547;-68
2024/02/26 05:01:52;;;;;;;16.40;13.25;;;8.30;99.90;;;8.37;87.48;99922.97;4975032;28;20097;-68
2024/02/26 05:04:21;;;;;;;18.05;13.80;;;8.30;99.90;;;8.41;87.31;99918.53;4975467;28;20055;-70
2024/02/26 05:06:49;;;;;;;15.07;13.43;;;8.30;99.90;;;8.37;87.46;99925.59;4974941;28;20105;-67
2024/02/26 05:09:18;;;;;;;16.98;12.95;;;8.30;99.90;;;8.37;87.28;99922.97;4974779;28;20042;-71
2024/02/26 05:11:48;;;;;;;15.90;13.57;;;8.30;99.90;;;8.33;87.41;99929.16;4975122;28;20054;-69
2024/02/26 05:14:16;;;;;;;16.88;13.63;;;8.20;99.90;;;8.36;87.49;99933.53;4974778;28;20050;-71
2024/02/26 05:16:45;;;;;;;16.98;14.02;;;8.20;99.90;;;8.37;87.26;99924.72;5438632;23;20059;-67
2024/02/26 05:19:13;;;;;;;17.08;13.73;;;8.30;99.90;;;8.39;87.41;99937.00;4974775;28;20046;-67
2024/02/26 05:21:44;;;;;;;16.13;13.50;;;8.30;99.90;;;8.41;87.78;99942.25;4974857;28;20062;-67
2024/02/26 05:24:12;;;;;;;16.83;13.95;;;8.30;99.90;;;8.44;87.44;99947.50;4974725;28;20153;-67
2024/02/26 05:26:40;;;;;;;15.77;13.30;;;8.30;99.90;;;8.35;87.28;99927.38;4974926;28;20043;-67
2024/02/26 05:29:11;;;;;;;17.83;13.70;;;8.30;99.90;;;8.41;87.50;99944.88;4974829;28;20047;-67
2024/02/26 05:31:39;;;;;;;17.00;14.57;;;8.30;99.90;;;8.35;87.51;99958.13;4974929;28;20079;-67
2024/02/26 05:34:08;;;;;;;18.05;14.40;;;8.30;99.90;;;8.32;88.06;99942.34;4974763;28;20527;-67
2024/02/26 05:36:36;;;;;;;17.40;13.98;;;8.20;99.90;;;8.26;88.15;99959.09;4975008;28;20053;-67
2024/02/26 05:39:04;;;;;;;16.77;13.95;;;8.20;99.90;;;8.28;88.34;99959.97;4957286;28;20068;-67
2024/02/26 05:41:33;;;;;;;19.85;15.10;;;8.20;99.90;;;8.29;88.48;99963.44;4974380;28;20058;-67
2024/02/26 05:44:02;;;;;;;18.40;14.15;;;8.20;99.90;;;8.23;88.16;99962.59;4957393;28;20050;-67
2024/02/26 05:46:31;;;;;;;16.88;14.55;;;8.20;99.90;;;8.28;88.36;99964.34;4974372;28;20150;-67
2024/02/26 05:49:00;;;;;;;18.10;15.37;;;8.20;99.90;;;8.23;88.32;99955.59;4974171;28;20125;-67
2024/02/26 05:51:28;;;;;;;19.77;14.52;;;8.20;99.90;;;8.08;88.35;99954.84;4974874;28;20396;-67
2024/02/26 05:53:57;;;;;;;17.70;13.88;;;8.10;99.90;;;8.17;88.81;99965.28;4974427;28;20050;-67
2024/02/26 05:56:26;;;;;;;18.55;14.77;;;8.10;99.90;;;8.18;88.81;99976.69;4974170;28;20061;-67
2024/02/26 05:58:54;;;;;;;18.30;14.45;;;8.10;99.90;;;8.13;88.50;99981.13;4974241;28;20050;-67
2024/02/26 06:01:24;;;;;;;19.95;14.70;;;8.10;99.90;;;7.62;87.84;99864.03;4974291;28;20101;-67
2024/02/26 06:03:54;;;;;;;20.23;14.02;;;8.20;99.90;;;8.24;88.00;99995.09;4974468;28;20137;-67
2024/02/26 06:06:23;;;;;;;17.08;13.90;;;8.20;99.90;;;8.26;88.09;100016.16;4974046;28;20074;-67
2024/02/26 06:08:52;;;;;;;19.85;15.15;;;8.20;99.90;;;8.17;88.30;100022.34;4974143;28;20125;-67
2024/02/26 06:11:22;;;;;;;18.23;15.00;;;8.10;99.90;;;8.18;88.15;100017.09;4973841;28;20039;-67
2024/02/26 06:13:51;;;;;;;19.15;14.88;;;8.10;99.90;;;8.20;88.24;100022.34;4973964;28;20047;-66
2024/02/26 06:16:19;;;;;;;19.95;15.07;;;8.10;99.90;;;8.12;88.85;100027.66;4973671;28;20050;-66
2024/02/26 06:18:48;;;;;;;19.55;14.95;;;8.00;99.90;;;8.09;88.91;100022.41;4973715;28;20050;-67
2024/02/26 06:21:17;;;;;;;22.08;15.23;;;8.00;99.90;;;8.04;89.36;100012.81;4973781;28;20047;-66
2024/02/26 06:23:46;;;;;;;20.00;15.47;;;8.00;99.90;;;8.11;88.84;100031.19;4973646;28;20038;-66
2024/02/26 06:26:14;;;;;;;19.70;14.98;;;8.00;99.90;;;8.12;89.25;100022.41;4973586;28;20333;-67
2024/02/26 06:28:43;;;;;;;21.67;15.85;;;8.00;99.90;;;7.36;89.16;99894.91;4973485;28;20062;-66
2024/02/26 06:31:11;;;;;;;21.80;17.13;;;8.00;99.90;;;8.08;89.52;100040.88;4973433;28;20452;-67
2024/02/26 06:33:39;;;;;;;22.52;17.00;;;8.00;99.90;;;8.08;89.48;100039.13;4973443;28;20068;-66
2024/02/26 06:36:08;;;;;;;24.00;17.50;;;8.00;99.90;;;8.12;89.68;100047.84;4973568;28;20054;-66
2024/02/26 06:38:38;;;;;;;24.52;17.65;;;8.00;99.90;;;8.03;89.78;100054.06;4956165;28;20042;-67
2024/02/26 06:41:06;;;;;;;23.50;17.05;;;8.00;99.90;;;7.68;89.93;99961.34;4973695;28;20054;-66
2024/02/26 06:43:35;;;;;;;26.90;19.27;;;8.00;99.90;;;8.10;90.22;100045.25;4973810;28;20043;-66
2024/02/26 06:46:03;;;;;;;26.92;18.70;;;8.00;99.90;;;8.13;90.73;100060.13;4972970;28;20043;-66
2024/02/26 06:48:32;;;;;;;30.10;20.00;;;8.00;99.90;;;8.10;91.04;100068.94;4973428;28;20051;-66
2024/02/26 06:51:00;;;;;;;28.98;19.55;;;8.00;99.90;;;8.08;91.18;100061.94;4973648;28;20053;-66
2024/02/26 06:53:29;;;;;;;28.40;20.33;;;8.00;99.90;;;8.04;91.10;100057.56;4973277;28;20109;-66
2024/02/26 06:55:59;;;;;;;26.90;19.58;;;8.00;99.90;;;8.17;91.80;100077.66;4973369;28;20547;-66
2024/02/26 06:58:27;;;;;;;26.20;20.95;;;8.00;99.90;;;7.46;91.60;99959.72;4973302;28;20488;-66
2024/02/26 07:00:55;;;;;;;27.52;20.90;;;8.10;99.90;;;7.69;91.74;100007.81;4973169;28;20475;-66
2024/02/26 07:03:25;;;;;;;30.02;22.85;;;8.00;99.90;;;7.43;92.46;99967.66;4972811;28;20039;-66
2024/02/26 07:05:54;;;;;;;28.10;21.57;;;8.00;99.90;;;8.15;92.24;100059.25;4955607;28;20075;-66
2024/02/26 07:08:22;;;;;;;31.02;21.42;;;8.00;99.90;;;8.23;92.47;100092.56;4955534;28;20775;-66
2024/02/26 07:10:50;;;;;;;28.92;21.77;;;8.10;99.90;;;8.21;92.32;100100.47;4972543;28;20051;-66
2024/02/26 07:13:20;;;;;;;32.35;23.00;;;8.10;99.90;;;8.16;92.46;100089.97;4955579;28;20043;-66
2024/02/26 07:15:49;;;;;;;30.27;22.17;;;8.10;99.90;;;8.25;92.55;100112.75;4972604;28;20034;-66
2024/02/26 07:18:17;;;;;;;36.80;23.25;;;8.10;99.90;;;8.25;92.62;100104.84;4955326;28;20488;-66
2024/02/26 07:20:46;;;;;;;32.97;23.27;;;8.20;99.90;;;8.34;92.74;100111.81;4972467;28;20050;-66
2024/02/26 07:23:14;;;;;;;32.70;24.70;;;8.20;99.90;;;8.27;93.92;100116.25;4972638;28;20055;-66
2024/02/26 07:25:44;;;;;;;29.67;23.52;;;8.20;99.90;;;8.34;93.83;100132.91;4972829;28;20073;-66
2024/02/26 07:28:15;;;;;;;32.42;24.02;;;8.20;99.90;;;8.23;93.58;100114.50;4973231;28;20130;-66
2024/02/26 07:30:45;;;;;;;31.73;24.17;;;8.20;99.90;;;8.15;94.38;100127.72;4972459;28;20043;-66
2024/02/26 07:33:14;;;;;;;30.88;24.33;;;8.00;99.90;;;8.08;94.78;100136.56;4972875;28;20070;-66
2024/02/26 07:35:43;;;;;;;31.55;23.95;;;8.00;99.90;;;8.08;94.87;100141.81;4972308;28;20389;-66
2024/02/26 07:38:13;;;;;;;30.48;22.90;;;8.00;99.90;;;8.10;95.12;100145.31;4972867;28;20089;-66
2024/02/26 07:40:58;;;;;;;31.35;23.52;;;8.00;99.90;;;8.05;95.08;100149.72;4972539;28;20105;-66
2024/02/26 07:43:31;;;;;;;27.38;22.70;;;8.00;99.90;;;8.04;95.35;100147.09;4972262;28;20043;-66
2024/02/26 07:46:00;;;;;;;29.73;23.63;;;8.00;99.90;;;7.95;95.37;100142.78;4972445;28;20461;-66
2024/02/26 07:48:29;;;;;;;28.98;23.92;;;7.90;99.90;;;7.93;96.18;100146.31;4955018;28;20051;-66
2024/02/26 07:50:59;;;;;;;28.85;23.25;;;7.80;99.90;;;7.84;95.83;100159.53;4972484;28;20103;-66
2024/02/26 07:53:28;;;;;;;28.67;21.63;;;7.80;99.90;;;7.94;95.84;100161.19;4972649;28;20131;-66
2024/02/26 07:55:56;;;;;;;25.30;20.40;;;7.80;99.90;;;7.93;95.61;100165.63;4972449;28;20069;-66
2024/02/26 07:58:25;;;;;;;25.63;21.00;;;7.90;99.90;;;7.92;96.21;100161.22;4954260;28;20444;-67
2024/02/26 08:00:53;;;;;;;26.00;20.48;;;7.90;99.90;;;7.88;96.09;100167.38;4971869;28;20051;-66
2024/02/26 08:03:23;;;;;;;24.80;20.92;;;7.80;99.90;;;7.78;96.34;100178.81;4971980;28;20038;-67
2024/02/26 08:05:52;;;;;;;24.63;18.92;;;7.70;99.90;;;7.86;96.45;100184.94;4971972;28;20055;-65
2024/02/26 08:08:21;;;;;;;25.58;19.52;;;7.80;99.90;;;7.85;96.70;100162.13;4972045;28;20063;-66
2024/02/26 08:10:49;;;;;;;23.75;19.17;;;7.70;99.90;;;7.77;96.58;100176.19;4971966;28;20498;-66
2024/02/26 08:13:18;;;;;;;21.15;17.10;;;7.80;99.90;;;7.76;96.33;100164.78;4972363;28;20051;-67
2024/02/26 08:15:46;;;;;;;22.10;16.95;;;7.80;99.90;;;7.91;96.25;100198.09;4954857;28;20074;-66
2024/02/26 08:18:15;;;;;;;19.98;17.33;;;7.90;99.90;;;7.85;96.11;100188.47;4972060;28;20055;-67
2024/02/26 08:20:46;;;;;;;19.43;16.43;;;7.80;99.90;;;7.81;96.58;100193.75;4971808;28;20493;-66
2024/02/26 08:23:18;;;;;;;21.40;16.20;;;7.70;99.90;;;7.83;96.38;100203.38;4972002;28;20340;-66
2024/02/26 08:25:49;;;;;;;19.63;16.13;;;7.70;99.90;;;7.87;96.19;100210.41;4972297;28;20047;-66
2024/02/26 08:28:18;;;;;;;;;;;7.80;99.90;;;7.86;95.82;100203.38;4972242;28;20077;-66
2024/02/26 08:30:46;;;;;;;17.17;15.15;;;7.80;99.90;;;7.78;96.25;100205.16;4971675;28;20331;-70
2024/02/26 08:33:15;;;;;;;20.73;15.38;;;7.70;99.90;;;7.80;96.11;100216.53;4971852;28;20093;-71
2024/02/26 08:35:45;;;;;;;18.10;14.05;;;7.70;99.90;;;7.78;96.32;100225.34;4971992;28;20098;-67
2024/02/26 08:38:13;;;;;;;17.15;13.90;;;7.70;99.90;;;7.75;96.33;100222.72;4971761;28;20130;-67
2024/02/26 08:40:43;;;;;;;17.83;13.35;;;7.70;99.90;;;7.84;96.25;100225.34;4972216;28;20043;-65
2024/02/26 08:43:11;;;;;;;18.30;12.95;;;7.80;99.90;;;7.70;95.62;100230.66;4971805;28;20079;-65
2024/02/26 08:45:40;;;;;;;16.38;13.23;;;7.70;99.90;;;7.75;95.84;100226.22;4954598;28;20071;-66
2024/02/26 08:48:08;;;;;;;16.15;12.48;;;7.70;99.90;;;7.83;95.89;100240.25;4971629;28;20057;-66
2024/02/26 08:50:37;;;;;;;14.43;12.18;;;7.70;99.90;;;7.82;95.69;100237.63;4971652;28;20043;-67
2024/02/26 08:53:07;;;;;;;14.77;11.95;;;7.70;99.90;;;7.87;95.90;100241.09;4972363;28;20086;-64
2024/02/26 08:55:35;;;;;;;16.55;11.85;;;7.80;99.90;;;7.85;95.38;100245.50;4972122;28;20444;-63
2024/02/26 08:58:04;;;;;;;14.35;12.30;;;7.80;99.90;;;7.90;95.40;100243.72;4971550;28;20070;-67
2024/02/26 09:00:32;;;;;;;14.32;12.20;;;7.80;99.90;;;7.68;95.12;100219.25;4971677;28;20065;-67
2024/02/26 09:03:01;;;;;;;12.30;11.00;;;7.80;99.90;;;7.88;94.77;100254.25;4971954;28;20400;-69
2024/02/26 09:05:33;;;;;;;14.27;11.73;;;7.80;99.90;;;7.90;94.85;100260.38;4972023;28;20047;-66
2024/02/26 09:08:01;;;;;;;15.30;10.98;;;7.80;99.90;;;7.94;94.84;100271.78;4971562;28;20121;-66
2024/02/26 09:10:32;;;;;;;12.65;11.13;;;7.80;99.90;;;7.99;94.81;100281.41;4974416;28;20077;-66
2024/02/26 09:13:01;;;;;;;14.35;10.65;;;7.90;99.90;;;7.94;94.37;100271.78;4975042;28;20408;-67
2024/02/26 09:15:29;;;;;;;13.63;10.90;;;7.90;99.90;;;7.90;94.52;100268.28;4975378;28;20038;-66
2024/02/26 09:17:59;;;;;;;12.80;11.30;;;7.90;99.90;;;7.94;94.80;100301.63;4975280;28;20556;-67
2024/02/26 09:20:28;;;;;;;12.40;10.57;;;7.80;99.90;;;7.81;94.94;100270.97;4975368;28;20125;-65
2024/02/26 09:22:56;;;;;;;14.52;11.38;;;7.80;99.90;;;7.90;95.01;100293.72;4974746;28;20047;-66
2024/02/26 09:25:24;;;;;;;14.60;11.23;;;7.80;99.90;;;7.91;94.71;100296.38;4957846;28;20066;-66
2024/02/26 09:27:54;;;;;;;13.18;11.02;;;7.80;99.90;;;7.98;94.70;100295.47;4974576;28;20116;-66
2024/02/26 09:30:23;;;;;;;11.43;10.18;;;7.80;99.90;;;7.81;94.28;100273.59;4974807;28;20073;-67
2024/02/26 09:32:51;;;;;;;11.90;10.60;;;7.90;99.90;;;7.93;94.48;100299.00;4974785;28;20118;-67
2024/02/26 09:35:21;;;;;;;12.55;9.95;;;7.90;99.90;;;8.01;94.76;100305.97;4975163;28;20057;-68
2024/02/26 09:37:50;;;;;;;11.67;10.30;;;7.90;99.90;;;8.00;94.19;100304.25;4957604;28;20058;-68
2024/02/26 09:40:18;;;;;;;11.85;10.48;;;8.00;99.90;;;8.06;94.35;100312.13;4975062;28;20062;-66
2024/02/26 09:42:47;;;;;;;12.63;10.95;;;8.00;99.90;;;8.07;93.94;100324.41;4974589;28;20106;-66
2024/02/26 09:45:23;;;;;;;11.32;10.18;;;8.00;99.90;;;8.01;94.27;100319.16;4974625;28;20051;-66
2024/02/26 09:47:51;;;;;;;11.02;9.90;;;8.00;99.90;;;8.17;93.92;100349.84;4974745;28;20405;-66
2024/02/26 09:50:22;;;;;;;12.45;9.95;;;8.10;99.90;;;8.07;94.11;100337.56;4974430;28;20444;-66
2024/02/26 09:52:53;;;;;;;12.32;10.07;;;8.00;99.90;;;7.73;93.68;100291.16;4974402;28;20133;-65
2024/02/26 09:55:22;;;;;;;11.23;10.02;;;8.00;99.90;;;8.11;94.62;100351.59;4974894;28;20047;-65
2024/02/26 09:57:53;;;;;;;11.82;10.38;;;8.00;99.90;;;8.17;94.54;100360.38;4974422;28;20071;-66
2024/02/26 10:00:28;;;;;;;10.77;9.70;;;8.00;99.90;;;8.13;94.08;100358.63;4974268;28;20043;-68
2024/02/26 10:02:59;;;;;;;12.15;9.75;;;8.10;99.90;;;8.04;94.61;100371.81;4974213;28;20472;-68
2024/02/26 10:05:28;;;;;;;11.63;10.25;;;8.00;99.90;;;8.16;94.58;100365.66;4974357;28;20053;-68
2024/02/26 10:08:00;;;;;;;12.32;10.25;;;8.00;99.90;;;7.92;94.73;100324.44;4974173;28;20047;-67
2024/02/26 10:10:31;;;;;;;12.68;10.18;;;8.10;99.90;;;8.24;95.39;100377.03;4974001;28;20066;-67
2024/02/26 10:13:01;;;;;;;12.70;10.27;;;8.10;99.90;;;8.30;95.31;100366.53;4973879;28;20050;-67
2024/02/26 10:15:31;;;;;;;11.50;10.20;;;8.20;99.90;;;8.32;95.27;100355.97;4956825;28;20492;-66
2024/02/26 10:18:00;;;;;;;11.90;10.45;;;8.20;99.90;;;8.34;94.87;100388.47;4974000;28;20050;-66
2024/02/26 10:20:28;;;;;;;11.48;10.27;;;8.20;99.90;;;8.34;94.67;100380.56;4973387;28;20444;-66
2024/02/26 10:22:57;;;;;;;12.10;10.77;;;8.20;99.90;;;8.31;94.89;100399.88;4973633;28;20053;-66
2024/02/26 10:25:25;;;;;;;12.18;9.80;;;8.20;99.90;;;8.35;95.19;100392.84;4956534;28;20047;-66
2024/02/26 10:27:55;;;;;;;12.88;9.52;;;8.20;99.90;;;8.38;94.35;100384.94;4956519;28;20047;-66